createdAt,value
2019-01-27T00:01:15.897Z,-1.70
2019-01-27T00:03:45.298Z,-1.80
2019-01-27T00:06:14.462Z,-1.80
2019-01-27T00:08:43.661Z,-1.80
2019-01-27T00:11:12.772Z,-1.60
2019-01-27T00:13:41.940Z,-1.60
2019-01-27T00:16:11.904Z,-1.50
2019-01-27T00:18:41.139Z,-1.50
2019-01-27T00:21:10.460Z,-1.60
2019-01-27T00:23:40.177Z,-1.60
2019-01-27T00:26:09.375Z,-1.50
2019-01-27T00:28:38.586Z,-1.60
2019-01-27T00:31:07.760Z,-1.60
2019-01-27T00:33:36.964Z,-1.50
2019-01-27T00:36:06.128Z,-1.50
2019-01-27T00:38:35.705Z,-1.40
2019-01-27T00:41:04.914Z,-1.40
2019-01-27T00:43:34.064Z,-1.40
2019-01-27T00:46:03.241Z,-1.30
2019-01-27T00:48:32.481Z,-1.20
2019-01-27T00:51:01.646Z,-1.30
2019-01-27T00:53:30.824Z,-1.50
2019-01-27T00:56:00.255Z,-1.60
2019-01-27T00:58:29.435Z,-1.70
2019-01-27T01:00:58.614Z,-1.70
2019-01-27T01:03:27.787Z,-1.60
2019-01-27T01:05:57.011Z,-1.70
2019-01-27T01:08:26.170Z,-1.80
2019-01-27T01:10:55.910Z,-1.80
2019-01-27T01:13:25.908Z,-1.70
2019-01-27T01:15:55.277Z,-1.70
2019-01-27T01:18:24.452Z,-1.60
2019-01-27T01:20:53.613Z,-1.70
2019-01-27T01:23:22.750Z,-1.70
2019-01-27T01:25:51.942Z,-1.80
2019-01-27T01:28:21.129Z,-1.70
2019-01-27T01:30:50.787Z,-1.60
2019-01-27T01:33:19.961Z,-1.60
2019-01-27T01:35:49.141Z,-1.50
2019-01-27T01:38:18.322Z,-1.50
2019-01-27T01:40:48.027Z,-1.50
2019-01-27T01:43:17.321Z,-1.60
2019-01-27T01:45:46.523Z,-1.60
2019-01-27T01:48:15.674Z,-1.60
2019-01-27T01:50:44.855Z,-1.70
2019-01-27T01:53:14.067Z,-1.70
2019-01-27T01:55:43.234Z,-1.70
2019-01-27T01:58:12.426Z,-1.70
2019-01-27T02:00:41.597Z,-1.80
2019-01-27T02:03:10.776Z,-1.80
2019-01-27T02:05:39.871Z,-1.80
2019-01-27T02:08:09.565Z,-1.80
2019-01-27T02:10:38.716Z,-1.70
2019-01-27T02:13:07.876Z,-1.70
2019-01-27T02:16:06.266Z,-1.80
2019-01-27T02:18:35.853Z,-1.70
2019-01-27T02:21:05.338Z,-1.60
2019-01-27T02:23:34.548Z,-1.70
2019-01-27T02:26:03.742Z,-1.70
2019-01-27T02:28:32.907Z,-1.70
2019-01-27T02:31:02.086Z,-1.80
2019-01-27T02:33:31.247Z,-1.80
2019-01-27T02:36:00.442Z,-1.80
2019-01-27T02:38:29.625Z,-1.70
2019-01-27T02:40:58.770Z,-1.70
2019-01-27T02:43:27.966Z,-1.70
2019-01-27T02:45:57.805Z,-1.60
2019-01-27T02:48:26.972Z,-1.60
2019-01-27T02:50:56.153Z,-1.60
2019-01-27T02:53:25.354Z,-1.60
2019-01-27T02:55:54.530Z,-1.60
2019-01-27T02:58:23.737Z,-1.60
2019-01-27T03:00:52.934Z,-1.60
2019-01-27T03:03:22.095Z,-1.60
2019-01-27T03:06:08.865Z,-1.50
2019-01-27T03:08:55.432Z,-1.50
2019-01-27T03:11:25.232Z,-1.50
2019-01-27T03:13:54.401Z,-1.40
2019-01-27T03:16:23.578Z,-1.40
2019-01-27T03:18:52.766Z,-1.30
2019-01-27T03:21:21.941Z,-1.40
2019-01-27T03:23:51.159Z,-1.30
2019-01-27T03:26:20.343Z,-1.30
2019-01-27T03:28:49.508Z,-1.30
2019-01-27T03:31:18.997Z,-1.20
2019-01-27T03:33:48.152Z,-1.00
2019-01-27T03:36:17.341Z,-1.00
2019-01-27T03:38:46.548Z,-0.90
2019-01-27T03:41:15.708Z,-0.90
2019-01-27T03:43:44.880Z,-1.00
2019-01-27T03:46:14.113Z,-1.10
2019-01-27T03:48:43.608Z,-1.10
2019-01-27T03:51:12.788Z,-1.20
2019-01-27T03:53:41.978Z,-1.30
2019-01-27T03:56:11.109Z,-1.30
2019-01-27T03:58:40.283Z,-1.30
2019-01-27T04:01:09.511Z,-1.30
2019-01-27T04:03:38.686Z,-1.30
2019-01-27T04:06:07.850Z,-1.30
2019-01-27T04:08:37.083Z,-1.20
2019-01-27T04:11:06.249Z,-1.20
2019-01-27T04:13:35.414Z,-1.30
2019-01-27T04:16:04.532Z,-1.30
2019-01-27T04:18:33.706Z,-1.30
2019-01-27T04:21:02.890Z,-1.30
2019-01-27T04:23:32.092Z,-1.30
2019-01-27T04:26:01.276Z,-1.30
2019-01-27T04:28:30.993Z,-1.30
2019-01-27T04:31:00.149Z,-1.30
2019-01-27T04:33:29.284Z,-1.30
2019-01-27T04:35:58.503Z,-1.30
2019-01-27T04:38:27.686Z,-1.30
2019-01-27T04:40:56.881Z,-1.30
2019-01-27T04:43:26.141Z,-1.30
2019-01-27T04:45:55.305Z,-1.30
2019-01-27T04:48:24.478Z,-1.20
2019-01-27T04:50:53.731Z,-1.30
2019-01-27T04:53:22.920Z,-1.20
2019-01-27T04:55:52.031Z,-1.20
2019-01-27T04:58:21.223Z,-1.10
2019-01-27T05:00:50.387Z,-1.20
2019-01-27T05:03:54.127Z,-1.20
2019-01-27T05:06:23.306Z,-1.20
2019-01-27T05:08:52.430Z,-1.20
2019-01-27T05:11:21.611Z,-1.20
2019-01-27T05:13:50.774Z,-1.30
2019-01-27T05:16:20.249Z,-1.30
2019-01-27T05:18:49.480Z,-1.30
2019-01-27T05:21:18.657Z,-1.30
2019-01-27T05:23:47.826Z,-1.30
2019-01-27T05:26:17.260Z,-1.30
2019-01-27T05:28:46.435Z,-1.30
2019-01-27T05:31:16.255Z,-1.30
2019-01-27T05:33:45.418Z,-1.30
2019-01-27T05:36:14.622Z,-1.30
2019-01-27T05:38:43.808Z,-1.20
2019-01-27T05:41:12.887Z,-1.30
2019-01-27T05:43:42.055Z,-1.30
2019-01-27T05:46:11.251Z,-1.30
2019-01-27T05:48:40.422Z,-1.30
2019-01-27T05:51:09.603Z,-1.30
2019-01-27T05:53:38.776Z,-1.30
2019-01-27T05:56:08.490Z,-1.30
2019-01-27T05:58:37.617Z,-1.20
2019-01-27T06:01:06.819Z,-1.30
2019-01-27T06:03:36.273Z,-1.20
2019-01-27T06:06:06.223Z,-1.30
2019-01-27T06:08:35.413Z,-1.20
2019-01-27T06:11:04.589Z,-1.30
2019-01-27T06:13:33.794Z,-1.30
2019-01-27T06:16:02.884Z,-1.30
2019-01-27T06:18:32.126Z,-1.30
2019-01-27T06:21:01.302Z,-1.30
2019-01-27T06:23:30.505Z,-1.20
2019-01-27T06:25:59.684Z,-1.20
2019-01-27T06:28:28.871Z,-1.20
2019-01-27T06:30:58.027Z,-1.20
2019-01-27T06:33:32.998Z,-1.20
2019-01-27T06:36:02.189Z,-1.20
2019-01-27T06:38:31.371Z,-1.20
2019-01-27T06:41:01.633Z,-1.10
2019-01-27T06:43:31.578Z,-1.00
2019-01-27T06:46:00.739Z,-1.00
2019-01-27T06:48:29.968Z,-1.10
2019-01-27T06:50:59.152Z,-1.10
2019-01-27T06:53:28.320Z,-1.10
2019-01-27T06:55:57.583Z,-1.10
2019-01-27T06:58:45.860Z,-1.10
2019-01-27T07:01:43.100Z,-1.10
2019-01-27T07:04:34.048Z,-1.00
2019-01-27T07:07:31.533Z,-0.90
2019-01-27T07:10:19.693Z,-0.90
2019-01-27T07:13:05.220Z,-0.90
2019-01-27T07:15:53.651Z,-0.90
2019-01-27T07:18:40.861Z,-0.90
2019-01-27T07:21:29.045Z,-0.90
2019-01-27T07:24:19.448Z,-0.80
2019-01-27T07:27:05.572Z,-0.80
2019-01-27T07:29:48.245Z,-0.90
2019-01-27T07:32:34.675Z,-0.80
2019-01-27T07:35:21.735Z,-0.80
2019-01-27T07:37:59.892Z,-0.80
2019-01-27T07:40:36.087Z,-0.70
2019-01-27T07:43:24.249Z,-0.60
2019-01-27T07:46:07.737Z,-0.60
2019-01-27T07:48:58.923Z,-0.60
2019-01-27T07:51:45.769Z,-0.70
2019-01-27T07:54:40.184Z,-0.60
2019-01-27T07:57:34.683Z,-0.70
2019-01-27T08:00:09.663Z,-0.60
2019-01-27T08:02:53.584Z,-0.60
2019-01-27T08:05:44.512Z,-0.50
2019-01-27T08:08:48.576Z,-0.40
2019-01-27T08:11:42.540Z,-0.40
2019-01-27T08:14:26.172Z,-0.40
2019-01-27T08:17:04.207Z,-0.30
2019-01-27T08:19:43.268Z,-0.30
2019-01-27T08:22:22.084Z,-0.30
2019-01-27T08:25:09.006Z,-0.20
2019-01-27T08:27:57.274Z,-0.20
2019-01-27T08:30:42.168Z,-0.10
2019-01-27T08:33:36.534Z,-0.20
2019-01-27T08:36:23.861Z,-0.10
2019-01-27T08:39:12.028Z,-0.10
2019-01-27T08:42:12.626Z,-0.10
2019-01-27T08:44:56.684Z,0.00
2019-01-27T08:47:25.926Z,0.00
2019-01-27T08:49:55.156Z,0.10
2019-01-27T08:52:24.892Z,0.20
2019-01-27T08:54:54.371Z,0.20
2019-01-27T08:57:25.449Z,0.20
2019-01-27T08:59:54.683Z,0.20
2019-01-27T09:02:46.423Z,0.20
2019-01-27T09:05:32.054Z,0.20
2019-01-27T09:08:21.970Z,0.20
2019-01-27T09:11:01.490Z,0.30
2019-01-27T09:13:49.451Z,0.40
2019-01-27T09:16:40.495Z,0.40
2019-01-27T09:19:20.601Z,0.40
2019-01-27T09:22:07.674Z,0.40
2019-01-27T09:24:55.945Z,0.40
2019-01-27T09:27:30.719Z,0.50
2019-01-27T09:30:14.680Z,0.50
2019-01-27T09:32:54.869Z,0.50
2019-01-27T09:35:43.016Z,0.50
2019-01-27T09:38:33.112Z,0.50
2019-01-27T09:41:20.040Z,0.50
2019-01-27T09:44:08.240Z,0.60
2019-01-27T09:46:54.952Z,0.60
2019-01-27T09:49:49.441Z,0.50
2019-01-27T09:52:36.449Z,0.50
2019-01-27T09:55:29.929Z,0.50
2019-01-27T09:58:21.445Z,0.50
2019-01-27T10:01:10.022Z,0.60
2019-01-27T10:04:03.257Z,0.70
2019-01-27T10:06:40.343Z,0.70
2019-01-27T10:09:33.566Z,0.70
2019-01-27T10:12:19.159Z,0.70
2019-01-27T10:15:07.724Z,0.70
2019-01-27T10:18:11.201Z,0.70
2019-01-27T10:20:56.462Z,0.70
2019-01-27T10:23:34.350Z,0.70
2019-01-27T10:26:26.083Z,0.70
2019-01-27T10:29:13.677Z,0.60
2019-01-27T10:32:00.456Z,0.60
2019-01-27T10:34:47.109Z,0.60
2019-01-27T10:37:41.688Z,0.60
2019-01-27T10:40:39.939Z,0.60
2019-01-27T10:43:32.251Z,0.60
2019-01-27T10:46:22.681Z,0.60
2019-01-27T10:49:09.514Z,0.60
2019-01-27T10:51:59.665Z,0.60
2019-01-27T10:54:53.125Z,0.60
2019-01-27T10:57:40.309Z,0.50
2019-01-27T11:00:23.541Z,0.50
2019-01-27T11:03:03.681Z,0.50
2019-01-27T11:05:47.080Z,0.40
2019-01-27T11:08:35.317Z,0.40
2019-01-27T11:11:32.727Z,0.40
2019-01-27T11:14:30.226Z,0.40
2019-01-27T11:17:27.278Z,0.40
2019-01-27T11:20:12.749Z,0.40
2019-01-27T11:23:01.606Z,0.50
2019-01-27T11:26:00.001Z,0.50
2019-01-27T11:28:43.177Z,0.50
2019-01-27T11:31:30.694Z,0.70
2019-01-27T11:34:16.993Z,0.70
2019-01-27T11:37:05.563Z,0.80
2019-01-27T11:39:45.413Z,0.80
2019-01-27T11:42:45.504Z,0.80
2019-01-27T11:45:40.061Z,0.90
2019-01-27T11:48:17.540Z,0.70
2019-01-27T11:50:53.842Z,0.70
2019-01-27T11:53:24.137Z,0.70
2019-01-27T11:55:53.327Z,0.70
2019-01-27T11:58:22.566Z,0.80
2019-01-27T12:00:56.942Z,0.70
2019-01-27T12:03:26.150Z,0.70
2019-01-27T12:05:55.797Z,0.80
2019-01-27T12:08:28.089Z,0.80
2019-01-27T12:10:57.411Z,0.90
2019-01-27T12:13:26.667Z,0.90
2019-01-27T12:15:56.016Z,0.90
2019-01-27T12:18:25.664Z,0.90
2019-01-27T12:20:55.109Z,0.90
2019-01-27T12:23:24.437Z,0.90
2019-01-27T12:25:53.756Z,0.90
2019-01-27T12:28:23.132Z,0.90
2019-01-27T12:30:52.431Z,0.90
2019-01-27T12:33:23.966Z,0.90
2019-01-27T12:35:53.302Z,0.80
2019-01-27T12:38:22.656Z,0.90
2019-01-27T12:40:51.960Z,0.90
2019-01-27T12:43:21.176Z,1.00
2019-01-27T12:45:50.428Z,1.00
2019-01-27T12:48:19.658Z,1.00
2019-01-27T12:50:48.951Z,1.00
2019-01-27T12:53:18.206Z,1.00
2019-01-27T12:55:48.486Z,1.00
2019-01-27T12:58:17.912Z,1.00
2019-01-27T13:00:56.243Z,1.00
2019-01-27T13:03:25.461Z,1.00
2019-01-27T13:05:54.663Z,1.00
2019-01-27T13:08:24.204Z,1.00
2019-01-27T13:10:53.460Z,1.00
2019-01-27T13:13:24.178Z,1.00
2019-01-27T13:15:53.432Z,1.00
2019-01-27T13:18:22.646Z,1.00
2019-01-27T13:20:51.834Z,1.00
2019-01-27T13:23:21.063Z,0.90
2019-01-27T13:25:50.297Z,0.90
2019-01-27T13:28:19.514Z,0.80
2019-01-27T13:30:48.765Z,0.80
2019-01-27T13:33:17.961Z,0.80
2019-01-27T13:35:47.198Z,0.80
2019-01-27T13:38:17.068Z,0.80
2019-01-27T13:40:46.287Z,0.80
2019-01-27T13:43:15.547Z,0.80
2019-01-27T13:45:44.808Z,0.80
2019-01-27T13:48:14.058Z,0.70
2019-01-27T13:50:43.825Z,0.70
2019-01-27T13:53:13.081Z,0.70
2019-01-27T13:55:42.516Z,0.70
2019-01-27T13:58:11.736Z,0.70
2019-01-27T14:00:41.114Z,0.70
2019-01-27T14:03:10.974Z,0.70
2019-01-27T14:05:40.323Z,0.60
2019-01-27T14:08:09.666Z,0.60
2019-01-27T14:10:39.233Z,0.60
2019-01-27T14:13:08.610Z,0.60
2019-01-27T14:15:40.933Z,0.60
2019-01-27T14:18:10.719Z,0.60
2019-01-27T14:20:40.031Z,0.60
2019-01-27T14:23:09.401Z,0.60
2019-01-27T14:25:38.733Z,0.60
2019-01-27T14:28:08.090Z,0.50
2019-01-27T14:30:40.248Z,0.60
2019-01-27T14:33:09.606Z,0.60
2019-01-27T14:35:39.070Z,0.60
2019-01-27T14:38:08.738Z,0.50
2019-01-27T14:40:38.045Z,0.50
2019-01-27T14:43:07.432Z,0.50
2019-01-27T14:45:38.755Z,0.50
2019-01-27T14:48:09.137Z,0.50
2019-01-27T14:50:41.859Z,0.50
2019-01-27T14:53:13.546Z,0.50
2019-01-27T14:55:42.829Z,0.50
2019-01-27T14:58:13.173Z,0.50
2019-01-27T15:00:43.918Z,0.50
2019-01-27T15:03:14.360Z,0.50
2019-01-27T15:05:43.971Z,0.50
2019-01-27T15:08:13.205Z,0.50
2019-01-27T15:10:43.695Z,0.60
2019-01-27T15:13:12.981Z,0.60
2019-01-27T15:15:42.264Z,0.60
2019-01-27T15:18:11.484Z,0.60
2019-01-27T15:20:50.125Z,0.60
2019-01-27T15:23:19.509Z,0.60
2019-01-27T15:25:48.760Z,0.60
2019-01-27T15:28:17.952Z,0.60
2019-01-27T15:30:47.215Z,0.70
2019-01-27T15:33:16.387Z,0.70
2019-01-27T15:35:45.603Z,0.70
2019-01-27T15:38:14.811Z,0.70
2019-01-27T15:40:44.317Z,0.70
2019-01-27T15:43:13.532Z,0.70
2019-01-27T15:45:42.737Z,0.70
2019-01-27T15:48:12.481Z,0.80
2019-01-27T15:50:41.705Z,0.70
2019-01-27T15:53:10.887Z,0.80
2019-01-27T15:55:40.091Z,0.80
2019-01-27T15:58:09.310Z,0.80
2019-01-27T16:00:38.639Z,0.70
2019-01-27T16:03:07.845Z,0.70
2019-01-27T16:05:37.085Z,0.70
2019-01-27T16:08:07.901Z,0.70
2019-01-27T16:10:37.099Z,0.70
2019-01-27T16:13:06.414Z,0.70
2019-01-27T16:15:35.739Z,0.60
2019-01-27T16:18:07.443Z,0.60
2019-01-27T16:20:36.616Z,0.60
2019-01-27T16:23:23.236Z,0.60
2019-01-27T16:25:54.488Z,0.50
2019-01-27T16:28:23.766Z,0.50
2019-01-27T16:31:09.319Z,0.50
2019-01-27T16:33:44.097Z,0.50
2019-01-27T16:36:13.329Z,0.50
2019-01-27T16:38:45.525Z,0.40
2019-01-27T16:41:14.846Z,0.40
2019-01-27T16:43:46.578Z,0.40
2019-01-27T16:46:22.321Z,0.40
2019-01-27T16:48:51.604Z,0.40
2019-01-27T16:51:21.247Z,0.40
2019-01-27T16:53:50.433Z,0.30
2019-01-27T16:56:19.751Z,0.30
2019-01-27T16:58:51.385Z,0.20
2019-01-27T17:01:21.105Z,0.20
2019-01-27T17:03:51.004Z,0.20
2019-01-27T17:06:20.268Z,0.20
2019-01-27T17:08:49.710Z,0.20
2019-01-27T17:11:18.941Z,0.20
2019-01-27T17:13:48.518Z,0.20
2019-01-27T17:16:17.775Z,0.10
2019-01-27T17:18:50.625Z,0.10
2019-01-27T17:21:19.921Z,0.10
2019-01-27T17:23:49.504Z,0.10
2019-01-27T17:26:18.739Z,0.20
2019-01-27T17:28:48.322Z,0.10
2019-01-27T17:31:17.562Z,0.10
2019-01-27T17:33:46.825Z,0.10
2019-01-27T17:36:16.471Z,0.10
2019-01-27T17:38:45.687Z,0.10
2019-01-27T17:41:14.871Z,0.10
2019-01-27T17:43:44.074Z,0.10
2019-01-27T17:46:13.510Z,0.00
2019-01-27T17:48:48.194Z,0.00
2019-01-27T17:51:17.436Z,0.00
2019-01-27T17:53:51.385Z,0.00
2019-01-27T17:56:20.815Z,-0.10
2019-01-27T17:59:18.041Z,-0.10
2019-01-27T18:02:21.316Z,-0.10
2019-01-27T18:05:14.316Z,-0.10
2019-01-27T18:08:02.515Z,-0.20
2019-01-27T18:10:37.431Z,-0.20
2019-01-27T18:13:31.464Z,-0.20
2019-01-27T18:16:02.311Z,-0.20
2019-01-27T18:18:31.555Z,-0.20
2019-01-27T18:21:00.830Z,-0.20
2019-01-27T18:23:30.118Z,-0.20
2019-01-27T18:25:59.399Z,-0.30
2019-01-27T18:28:28.653Z,-0.20
2019-01-27T18:30:59.964Z,-0.20
2019-01-27T18:33:29.241Z,-0.20
2019-01-27T18:35:58.457Z,-0.20
2019-01-27T18:38:27.671Z,-0.20
2019-01-27T18:40:57.301Z,-0.20
2019-01-27T18:43:26.957Z,-0.20
2019-01-27T18:45:56.158Z,-0.20
2019-01-27T18:48:25.423Z,-0.30
2019-01-27T18:50:54.634Z,-0.30
2019-01-27T18:53:53.396Z,-0.30
2019-01-27T18:56:43.620Z,-0.30
2019-01-27T18:59:44.023Z,-0.30
2019-01-27T19:02:35.580Z,-0.30
2019-01-27T19:05:31.555Z,-0.30
2019-01-27T19:08:20.698Z,-0.30
2019-01-27T19:11:17.906Z,-0.40
2019-01-27T19:14:12.985Z,-0.40
2019-01-27T19:16:55.492Z,-0.40
2019-01-27T19:19:42.958Z,-0.40
2019-01-27T19:22:43.745Z,-0.40
2019-01-27T19:25:24.482Z,-0.40
2019-01-27T19:28:05.698Z,-0.40
2019-01-27T19:30:46.410Z,-0.50
2019-01-27T19:33:39.644Z,-0.50
2019-01-27T19:36:16.041Z,-0.50
2019-01-27T19:39:03.187Z,-0.50
2019-01-27T19:41:48.700Z,-0.50
2019-01-27T19:44:34.980Z,-0.60
2019-01-27T19:47:19.005Z,-0.60
2019-01-27T19:50:20.115Z,-0.60
2019-01-27T19:53:00.896Z,-0.60
2019-01-27T19:55:41.397Z,-0.60
2019-01-27T19:58:32.420Z,-0.60
2019-01-27T20:01:08.892Z,-0.60
2019-01-27T20:04:03.137Z,-0.60
2019-01-27T20:06:57.979Z,-0.70
2019-01-27T20:09:58.350Z,-0.70
2019-01-27T20:12:52.182Z,-0.70
2019-01-27T20:15:40.146Z,-0.70
2019-01-27T20:18:32.422Z,-0.70
2019-01-27T20:21:20.026Z,-0.70
2019-01-27T20:24:07.578Z,-0.80
2019-01-27T20:27:11.239Z,-0.80
2019-01-27T20:29:57.843Z,-0.80
2019-01-27T20:33:04.448Z,-0.80
2019-01-27T20:35:51.598Z,-0.80
2019-01-27T20:38:48.978Z,-0.80
2019-01-27T20:41:37.457Z,-0.90
2019-01-27T20:44:34.833Z,-0.80
2019-01-27T20:47:29.350Z,-0.80
2019-01-27T20:50:29.667Z,-0.80
2019-01-27T20:53:09.369Z,-0.80
2019-01-27T20:56:09.744Z,-0.80
2019-01-27T20:58:53.529Z,-0.80
2019-01-27T21:01:41.786Z,-0.90
2019-01-27T21:04:28.944Z,-0.90
2019-01-27T21:07:04.435Z,-0.90
2019-01-27T21:09:52.111Z,-0.90
2019-01-27T21:12:31.600Z,-0.90
2019-01-27T21:15:10.572Z,-0.90
2019-01-27T21:18:04.883Z,-0.90
2019-01-27T21:20:34.151Z,-0.90
2019-01-27T21:23:03.376Z,-0.90
2019-01-27T21:25:33.121Z,-0.90
2019-01-27T21:28:02.412Z,-0.90
2019-01-27T21:30:32.311Z,-0.90
2019-01-27T21:33:01.591Z,-1.00
2019-01-27T21:35:30.968Z,-1.00
2019-01-27T21:38:00.765Z,-1.00
2019-01-27T21:40:30.023Z,-1.00
2019-01-27T21:42:59.836Z,-1.10
2019-01-27T21:45:30.081Z,-1.00
2019-01-27T21:47:59.787Z,-1.10
2019-01-27T21:50:29.032Z,-1.00
2019-01-27T21:52:58.713Z,-1.00
2019-01-27T21:55:27.946Z,-1.00
2019-01-27T21:57:57.173Z,-1.00
2019-01-27T22:00:26.401Z,-1.10
2019-01-27T22:02:55.662Z,-1.10
2019-01-27T22:05:24.863Z,-1.10
2019-01-27T22:07:54.155Z,-1.10
2019-01-27T22:10:23.347Z,-1.10
2019-01-27T22:12:52.554Z,-1.10
2019-01-27T22:15:21.769Z,-1.10
2019-01-27T22:17:50.982Z,-1.10
2019-01-27T22:20:20.207Z,-1.10
2019-01-27T22:22:49.841Z,-1.00
2019-01-27T22:25:19.061Z,-1.00
2019-01-27T22:27:48.288Z,-1.00
2019-01-27T22:30:19.463Z,-1.00
2019-01-27T22:32:48.673Z,-1.00
2019-01-27T22:35:18.348Z,-1.00
2019-01-27T22:37:47.791Z,-1.00
2019-01-27T22:40:17.097Z,-1.10
2019-01-27T22:42:46.282Z,-1.10
2019-01-27T22:45:16.116Z,-1.10
2019-01-27T22:47:45.356Z,-1.10
2019-01-27T22:50:16.596Z,-1.10
2019-01-27T22:52:45.806Z,-1.10
2019-01-27T22:55:15.043Z,-1.00
2019-01-27T22:57:44.258Z,-1.00
2019-01-27T23:01:00.186Z,-1.00
2019-01-27T23:03:35.002Z,-1.00
2019-01-27T23:06:04.228Z,-1.00
2019-01-27T23:08:33.440Z,-1.00
2019-01-27T23:11:02.624Z,-1.00
2019-01-27T23:13:31.837Z,-1.00
2019-01-27T23:16:01.001Z,-0.90
2019-01-27T23:18:30.242Z,-0.90
2019-01-27T23:20:59.464Z,-0.90
2019-01-27T23:23:28.648Z,-0.90
2019-01-27T23:25:57.828Z,-0.80
2019-01-27T23:28:26.951Z,-0.80
2019-01-27T23:30:56.137Z,-0.80
2019-01-27T23:33:25.335Z,-0.70
2019-01-27T23:35:54.534Z,-0.70
2019-01-27T23:38:23.691Z,-0.70
2019-01-27T23:40:52.881Z,-0.70
2019-01-27T23:43:22.048Z,-0.70
2019-01-27T23:45:51.301Z,-0.70
2019-01-27T23:48:22.096Z,-0.70
2019-01-27T23:50:51.345Z,-0.80
2019-01-27T23:53:20.530Z,-0.70
2019-01-27T23:55:49.732Z,-0.70
2019-01-27T23:58:18.928Z,-0.70
